sensor_id;sensor_type;location;lat;lon;timestamp;temperature;humidity
12156;DHT22;6141;49.092;8.516;2022-08-19T00:06:33;23.80;49.60
12156;DHT22;6141;49.092;8.516;2022-08-19T00:10:45;23.40;50.60
12156;DHT22;6141;49.092;8.516;2022-08-19T00:14:55;23.40;51.20
12156;DHT22;6141;49.092;8.516;2022-08-19T00:22:29;22.90;53.10
12156;DHT22;6141;49.092;8.516;2022-08-19T00:25:32;23.00;52.90
12156;DHT22;6141;49.092;8.516;2022-08-19T00:28:24;23.00;52.70
12156;DHT22;6141;49.092;8.516;2022-08-19T00:41:50;23.10;51.70
12156;DHT22;6141;49.092;8.516;2022-08-19T00:46:33;23.10;52.50
12156;DHT22;6141;49.092;8.516;2022-08-19T00:50:35;22.80;51.90
12156;DHT22;6141;49.092;8.516;2022-08-19T00:53:47;22.90;51.80
12156;DHT22;6141;49.092;8.516;2022-08-19T01:15:41;23.30;50.10
12156;DHT22;6141;49.092;8.516;2022-08-19T01:19:27;23.30;50.10
12156;DHT22;6141;49.092;8.516;2022-08-19T01:23:07;23.20;50.20
12156;DHT22;6141;49.092;8.516;2022-08-19T01:27:21;23.20;51.80
12156;DHT22;6141;49.092;8.516;2022-08-19T01:30:50;23.10;51.70
12156;DHT22;6141;49.092;8.516;2022-08-19T01:38:45;23.30;51.30
12156;DHT22;6141;49.092;8.516;2022-08-19T01:42:05;23.20;51.80
12156;DHT22;6141;49.092;8.516;2022-08-19T01:51:22;23.10;52.00
12156;DHT22;6141;49.092;8.516;2022-08-19T01:55:30;23.20;51.80
12156;DHT22;6141;49.092;8.516;2022-08-19T01:59:05;23.40;51.00
12156;DHT22;6141;49.092;8.516;2022-08-19T02:03:13;23.50;50.90
12156;DHT22;6141;49.092;8.516;2022-08-19T02:07:17;23.50;50.50
12156;DHT22;6141;49.092;8.516;2022-08-19T02:24:33;23.80;48.70
12156;DHT22;6141;49.092;8.516;2022-08-19T02:32:46;23.60;49.80
12156;DHT22;6141;49.092;8.516;2022-08-19T02:36:46;23.70;50.00
12156;DHT22;6141;49.092;8.516;2022-08-19T02:45:00;23.90;49.60
12156;DHT22;6141;49.092;8.516;2022-08-19T02:48:09;23.70;49.40
12156;DHT22;6141;49.092;8.516;2022-08-19T02:50:49;23.60;49.50
12156;DHT22;6141;49.092;8.516;2022-08-19T02:53:22;23.60;49.90
12156;DHT22;6141;49.092;8.516;2022-08-19T02:55:51;23.50;49.80
12156;DHT22;6141;49.092;8.516;2022-08-19T02:58:20;23.40;49.30
12156;DHT22;6141;49.092;8.516;2022-08-19T03:00:54;23.30;50.70
12156;DHT22;6141;49.092;8.516;2022-08-19T03:03:26;23.10;51.60
12156;DHT22;6141;49.092;8.516;2022-08-19T03:06:10;22.90;51.50
12156;DHT22;6141;49.092;8.516;2022-08-19T03:08:41;22.90;51.80
12156;DHT22;6141;49.092;8.516;2022-08-19T03:11:13;22.80;51.90
12156;DHT22;6141;49.092;8.516;2022-08-19T03:13:42;22.80;52.20
12156;DHT22;6141;49.092;8.516;2022-08-19T03:16:16;22.90;52.20
12156;DHT22;6141;49.092;8.516;2022-08-19T03:18:44;23.00;51.60
12156;DHT22;6141;49.092;8.516;2022-08-19T03:21:15;23.10;51.70
12156;DHT22;6141;49.092;8.516;2022-08-19T03:23:43;23.20;51.80
12156;DHT22;6141;49.092;8.516;2022-08-19T03:26:12;23.20;50.70
12156;DHT22;6141;49.092;8.516;2022-08-19T03:28:43;23.30;50.70
12156;DHT22;6141;49.092;8.516;2022-08-19T03:31:20;23.20;50.80
12156;DHT22;6141;49.092;8.516;2022-08-19T03:34:10;23.20;51.40
12156;DHT22;6141;49.092;8.516;2022-08-19T03:36:39;23.10;51.70
12156;DHT22;6141;49.092;8.516;2022-08-19T03:39:09;22.90;52.00
12156;DHT22;6141;49.092;8.516;2022-08-19T03:41:40;22.70;52.20
12156;DHT22;6141;49.092;8.516;2022-08-19T03:44:12;22.50;52.70
12156;DHT22;6141;49.092;8.516;2022-08-19T03:46:51;22.40;54.00
12156;DHT22;6141;49.092;8.516;2022-08-19T03:49:20;22.60;53.40
12156;DHT22;6141;49.092;8.516;2022-08-19T03:51:55;22.80;53.40
12156;DHT22;6141;49.092;8.516;2022-08-19T03:54:24;22.90;52.90
12156;DHT22;6141;49.092;8.516;2022-08-19T03:56:54;23.00;52.10
12156;DHT22;6141;49.092;8.516;2022-08-19T03:59:25;23.20;51.80
12156;DHT22;6141;49.092;8.516;2022-08-19T04:01:57;23.20;51.70
12156;DHT22;6141;49.092;8.516;2022-08-19T04:04:26;23.30;51.30
12156;DHT22;6141;49.092;8.516;2022-08-19T04:07:00;23.50;52.00
12156;DHT22;6141;49.092;8.516;2022-08-19T04:09:29;23.40;50.80
12156;DHT22;6141;49.092;8.516;2022-08-19T04:11:57;23.50;50.70
12156;DHT22;6141;49.092;8.516;2022-08-19T04:14:28;23.30;51.90
12156;DHT22;6141;49.092;8.516;2022-08-19T04:17:00;23.10;52.50
12156;DHT22;6141;49.092;8.516;2022-08-19T04:19:32;23.10;52.50
12156;DHT22;6141;49.092;8.516;2022-08-19T04:22:04;23.10;53.00
12156;DHT22;6141;49.092;8.516;2022-08-19T04:24:33;23.10;53.00
12156;DHT22;6141;49.092;8.516;2022-08-19T04:27:05;23.10;53.50
12156;DHT22;6141;49.092;8.516;2022-08-19T04:29:34;23.10;53.20
12156;DHT22;6141;49.092;8.516;2022-08-19T04:32:05;23.20;53.60
12156;DHT22;6141;49.092;8.516;2022-08-19T04:34:35;23.20;53.80
12156;DHT22;6141;49.092;8.516;2022-08-19T04:37:24;23.10;53.50
12156;DHT22;6141;49.092;8.516;2022-08-19T04:39:57;23.00;54.20
12156;DHT22;6141;49.092;8.516;2022-08-19T04:42:43;22.80;54.40
12156;DHT22;6141;49.092;8.516;2022-08-19T04:45:13;22.90;54.60
12156;DHT22;6141;49.092;8.516;2022-08-19T04:47:44;22.80;54.80
12156;DHT22;6141;49.092;8.516;2022-08-19T04:50:25;22.80;55.40
12156;DHT22;6141;49.092;8.516;2022-08-19T04:52:53;22.80;55.40
12156;DHT22;6141;49.092;8.516;2022-08-19T04:55:22;22.80;55.70
12156;DHT22;6141;49.092;8.516;2022-08-19T04:57:52;22.80;56.00
12156;DHT22;6141;49.092;8.516;2022-08-19T05:00:20;22.90;55.30
12156;DHT22;6141;49.092;8.516;2022-08-19T05:02:50;23.00;56.50
12156;DHT22;6141;49.092;8.516;2022-08-19T05:05:21;23.00;56.00
12156;DHT22;6141;49.092;8.516;2022-08-19T05:07:49;23.10;55.80
12156;DHT22;6141;49.092;8.516;2022-08-19T05:10:18;23.20;55.90
12156;DHT22;6141;49.092;8.516;2022-08-19T05:12:47;23.20;55.60
12156;DHT22;6141;49.092;8.516;2022-08-19T05:15:15;23.20;55.70
12156;DHT22;6141;49.092;8.516;2022-08-19T05:17:44;23.30;55.40
12156;DHT22;6141;49.092;8.516;2022-08-19T05:20:33;23.40;55.80
12156;DHT22;6141;49.092;8.516;2022-08-19T05:23:19;23.50;54.80
12156;DHT22;6141;49.092;8.516;2022-08-19T05:25:49;23.50;54.40
12156;DHT22;6141;49.092;8.516;2022-08-19T05:28:18;23.50;54.50
12156;DHT22;6141;49.092;8.516;2022-08-19T05:30:47;23.40;54.90
12156;DHT22;6141;49.092;8.516;2022-08-19T05:33:18;23.50;52.40
12156;DHT22;6141;49.092;8.516;2022-08-19T05:35:47;23.50;53.40
12156;DHT22;6141;49.092;8.516;2022-08-19T05:38:16;23.30;52.10
12156;DHT22;6141;49.092;8.516;2022-08-19T05:40:45;23.30;52.70
12156;DHT22;6141;49.092;8.516;2022-08-19T05:43:15;23.30;52.80
12156;DHT22;6141;49.092;8.516;2022-08-19T05:45:43;23.30;52.80
12156;DHT22;6141;49.092;8.516;2022-08-19T05:48:12;23.30;51.90
12156;DHT22;6141;49.092;8.516;2022-08-19T05:50:41;23.30;51.90
12156;DHT22;6141;49.092;8.516;2022-08-19T05:53:13;23.30;51.90
12156;DHT22;6141;49.092;8.516;2022-08-19T05:55:43;23.40;51.80
12156;DHT22;6141;49.092;8.516;2022-08-19T05:58:11;23.50;50.30
12156;DHT22;6141;49.092;8.516;2022-08-19T06:00:39;23.50;50.20
12156;DHT22;6141;49.092;8.516;2022-08-19T06:03:07;23.60;51.40
12156;DHT22;6141;49.092;8.516;2022-08-19T06:05:40;23.70;49.80
12156;DHT22;6141;49.092;8.516;2022-08-19T06:08:19;23.70;48.50
12156;DHT22;6141;49.092;8.516;2022-08-19T06:11:19;23.70;49.60
12156;DHT22;6141;49.092;8.516;2022-08-19T06:13:49;23.80;49.70
12156;DHT22;6141;49.092;8.516;2022-08-19T06:16:26;23.60;49.30
12156;DHT22;6141;49.092;8.516;2022-08-19T06:19:00;23.70;49.30
12156;DHT22;6141;49.092;8.516;2022-08-19T06:21:30;23.70;49.10
12156;DHT22;6141;49.092;8.516;2022-08-19T06:23:59;23.80;49.70
12156;DHT22;6141;49.092;8.516;2022-08-19T06:26:29;23.80;49.10
12156;DHT22;6141;49.092;8.516;2022-08-19T06:28:57;23.80;48.60
12156;DHT22;6141;49.092;8.516;2022-08-19T06:31:27;23.80;47.80
12156;DHT22;6141;49.092;8.516;2022-08-19T06:33:56;23.80;47.40
12156;DHT22;6141;49.092;8.516;2022-08-19T06:36:27;23.80;48.40
12156;DHT22;6141;49.092;8.516;2022-08-19T06:39:00;23.80;47.60
12156;DHT22;6141;49.092;8.516;2022-08-19T06:41:28;24.00;47.50
12156;DHT22;6141;49.092;8.516;2022-08-19T06:43:57;24.00;46.80
12156;DHT22;6141;49.092;8.516;2022-08-19T06:46:26;23.90;46.80
12156;DHT22;6141;49.092;8.516;2022-08-19T06:48:54;23.90;47.40
12156;DHT22;6141;49.092;8.516;2022-08-19T06:51:23;24.00;46.90
12156;DHT22;6141;49.092;8.516;2022-08-19T06:53:59;24.00;47.00
12156;DHT22;6141;49.092;8.516;2022-08-19T06:56:30;24.10;46.40
12156;DHT22;6141;49.092;8.516;2022-08-19T06:59:02;24.20;46.40
12156;DHT22;6141;49.092;8.516;2022-08-19T07:01:34;24.20;46.00
12156;DHT22;6141;49.092;8.516;2022-08-19T07:04:05;24.20;46.40
12156;DHT22;6141;49.092;8.516;2022-08-19T07:06:38;24.20;46.10
12156;DHT22;6141;49.092;8.516;2022-08-19T07:09:16;24.10;46.30
12156;DHT22;6141;49.092;8.516;2022-08-19T07:11:45;24.10;46.30
12156;DHT22;6141;49.092;8.516;2022-08-19T07:14:15;24.10;46.30
12156;DHT22;6141;49.092;8.516;2022-08-19T07:16:47;24.10;46.30
12156;DHT22;6141;49.092;8.516;2022-08-19T07:19:16;24.10;46.30
12156;DHT22;6141;49.092;8.516;2022-08-19T07:21:46;24.10;47.40
12156;DHT22;6141;49.092;8.516;2022-08-19T07:24:17;24.10;46.30
12156;DHT22;6141;49.092;8.516;2022-08-19T07:26:46;24.10;46.30
12156;DHT22;6141;49.092;8.516;2022-08-19T07:29:19;24.10;45.80
12156;DHT22;6141;49.092;8.516;2022-08-19T07:31:55;24.00;46.20
12156;DHT22;6141;49.092;8.516;2022-08-19T07:34:28;23.90;46.20
12156;DHT22;6141;49.092;8.516;2022-08-19T07:36:56;23.90;46.10
12156;DHT22;6141;49.092;8.516;2022-08-19T07:39:29;23.90;46.10
12156;DHT22;6141;49.092;8.516;2022-08-19T07:42:01;24.00;47.20
12156;DHT22;6141;49.092;8.516;2022-08-19T07:44:30;24.10;46.30
12156;DHT22;6141;49.092;8.516;2022-08-19T07:46:58;24.10;45.30
12156;DHT22;6141;49.092;8.516;2022-08-19T07:49:27;24.00;45.50
12156;DHT22;6141;49.092;8.516;2022-08-19T07:51:58;24.00;46.20
12156;DHT22;6141;49.092;8.516;2022-08-19T07:54:31;24.00;46.20
12156;DHT22;6141;49.092;8.516;2022-08-19T07:57:01;24.20;45.80
12156;DHT22;6141;49.092;8.516;2022-08-19T07:59:30;24.20;46.40
12156;DHT22;6141;49.092;8.516;2022-08-19T08:01:58;24.10;45.60
12156;DHT22;6141;49.092;8.516;2022-08-19T08:04:27;24.10;45.60
12156;DHT22;6141;49.092;8.516;2022-08-19T08:07:14;24.10;46.30
12156;DHT22;6141;49.092;8.516;2022-08-19T08:10:04;24.20;46.40
12156;DHT22;6141;49.092;8.516;2022-08-19T08:12:46;24.30;46.60
12156;DHT22;6141;49.092;8.516;2022-08-19T08:15:34;24.50;45.90
12156;DHT22;6141;49.092;8.516;2022-08-19T08:18:08;24.60;44.60
12156;DHT22;6141;49.092;8.516;2022-08-19T08:20:37;24.60;43.80
12156;DHT22;6141;49.092;8.516;2022-08-19T08:23:05;24.60;45.80
12156;DHT22;6141;49.092;8.516;2022-08-19T08:25:57;24.50;44.60
12156;DHT22;6141;49.092;8.516;2022-08-19T08:28:27;24.60;44.60
12156;DHT22;6141;49.092;8.516;2022-08-19T08:30:57;24.60;45.10
12156;DHT22;6141;49.092;8.516;2022-08-19T08:33:28;24.60;44.50
12156;DHT22;6141;49.092;8.516;2022-08-19T08:36:01;24.60;45.30
12156;DHT22;6141;49.092;8.516;2022-08-19T08:38:30;24.70;45.00
12156;DHT22;6141;49.092;8.516;2022-08-19T08:41:16;24.70;43.70
12156;DHT22;6141;49.092;8.516;2022-08-19T08:43:49;24.80;46.60
12156;DHT22;6141;49.092;8.516;2022-08-19T08:46:23;24.90;45.20
12156;DHT22;6141;49.092;8.516;2022-08-19T08:49:01;25.10;43.40
12156;DHT22;6141;49.092;8.516;2022-08-19T08:51:36;25.20;42.80
12156;DHT22;6141;49.092;8.516;2022-08-19T08:54:08;25.40;44.30
12156;DHT22;6141;49.092;8.516;2022-08-19T08:56:39;25.30;41.50
12156;DHT22;6141;49.092;8.516;2022-08-19T08:59:15;25.50;43.50
12156;DHT22;6141;49.092;8.516;2022-08-19T09:01:44;25.60;43.10
12156;DHT22;6141;49.092;8.516;2022-08-19T09:04:13;25.70;41.20
12156;DHT22;6141;49.092;8.516;2022-08-19T09:06:48;25.60;40.80
12156;DHT22;6141;49.092;8.516;2022-08-19T09:09:22;25.70;42.30
12156;DHT22;6141;49.092;8.516;2022-08-19T09:12:02;25.90;41.40
12156;DHT22;6141;49.092;8.516;2022-08-19T09:14:43;26.10;41.60
12156;DHT22;6141;49.092;8.516;2022-08-19T09:17:18;26.20;38.50
12156;DHT22;6141;49.092;8.516;2022-08-19T09:19:52;26.20;40.00
12156;DHT22;6141;49.092;8.516;2022-08-19T09:22:21;26.30;40.10
12156;DHT22;6141;49.092;8.516;2022-08-19T09:24:54;26.60;38.60
12156;DHT22;6141;49.092;8.516;2022-08-19T09:27:25;26.70;38.70
12156;DHT22;6141;49.092;8.516;2022-08-19T09:30:12;26.90;37.30
12156;DHT22;6141;49.092;8.516;2022-08-19T09:32:42;27.00;36.80
12156;DHT22;6141;49.092;8.516;2022-08-19T09:35:11;27.00;36.80
12156;DHT22;6141;49.092;8.516;2022-08-19T09:37:41;27.10;35.80
12156;DHT22;6141;49.092;8.516;2022-08-19T09:40:11;27.30;35.90
12156;DHT22;6141;49.092;8.516;2022-08-19T09:42:43;27.30;33.70
12156;DHT22;6141;49.092;8.516;2022-08-19T09:45:19;27.10;35.70
12156;DHT22;6141;49.092;8.516;2022-08-19T09:47:49;27.00;35.60
12156;DHT22;6141;49.092;8.516;2022-08-19T09:50:22;26.90;36.00
12156;DHT22;6141;49.092;8.516;2022-08-19T09:52:51;26.80;34.70
12156;DHT22;6141;49.092;8.516;2022-08-19T09:55:24;26.80;34.90
12156;DHT22;6141;49.092;8.516;2022-08-19T09:57:59;26.60;35.40
12156;DHT22;6141;49.092;8.516;2022-08-19T10:00:28;26.70;38.10
12156;DHT22;6141;49.092;8.516;2022-08-19T10:02:57;26.90;36.20
12156;DHT22;6141;49.092;8.516;2022-08-19T10:05:25;27.10;34.60
12156;DHT22;6141;49.092;8.516;2022-08-19T10:08:15;27.00;33.30
12156;DHT22;6141;49.092;8.516;2022-08-19T10:10:44;27.00;34.00
12156;DHT22;6141;49.092;8.516;2022-08-19T10:13:17;27.20;34.00
12156;DHT22;6141;49.092;8.516;2022-08-19T10:15:48;27.30;33.30
12156;DHT22;6141;49.092;8.516;2022-08-19T10:18:20;27.30;33.40
12156;DHT22;6141;49.092;8.516;2022-08-19T10:20:50;27.40;35.00
12156;DHT22;6141;49.092;8.516;2022-08-19T10:23:19;27.50;32.60
12156;DHT22;6141;49.092;8.516;2022-08-19T10:25:48;27.60;33.90
12156;DHT22;6141;49.092;8.516;2022-08-19T10:28:18;27.50;32.50
12156;DHT22;6141;49.092;8.516;2022-08-19T10:30:49;27.60;35.20
12156;DHT22;6141;49.092;8.516;2022-08-19T10:33:17;27.50;33.30
12156;DHT22;6141;49.092;8.516;2022-08-19T10:36:08;27.50;32.50
12156;DHT22;6141;49.092;8.516;2022-08-19T10:38:37;27.40;31.00
12156;DHT22;6141;49.092;8.516;2022-08-19T10:41:19;27.30;31.40
12156;DHT22;6141;49.092;8.516;2022-08-19T10:43:53;27.10;32.40
12156;DHT22;6141;49.092;8.516;2022-08-19T10:46:23;27.20;32.10
12156;DHT22;6141;49.092;8.516;2022-08-19T10:48:52;27.30;32.10
12156;DHT22;6141;49.092;8.516;2022-08-19T10:51:21;27.60;32.10
12156;DHT22;6141;49.092;8.516;2022-08-19T10:54:14;27.90;30.20
12156;DHT22;6141;49.092;8.516;2022-08-19T10:56:43;28.20;29.80
12156;DHT22;6141;49.092;8.516;2022-08-19T10:59:23;28.40;29.40
12156;DHT22;6141;49.092;8.516;2022-08-19T11:02:00;28.40;28.60
12156;DHT22;6141;49.092;8.516;2022-08-19T11:04:31;28.40;29.30
12156;DHT22;6141;49.092;8.516;2022-08-19T11:07:02;28.30;30.00
12156;DHT22;6141;49.092;8.516;2022-08-19T11:09:37;28.30;30.00
12156;DHT22;6141;49.092;8.516;2022-08-19T11:12:09;28.30;30.00
12156;DHT22;6141;49.092;8.516;2022-08-19T11:14:38;28.50;30.00
12156;DHT22;6141;49.092;8.516;2022-08-19T11:17:07;28.60;29.10
12156;DHT22;6141;49.092;8.516;2022-08-19T11:19:35;28.40;27.80
12156;DHT22;6141;49.092;8.516;2022-08-19T11:22:03;28.50;28.70
12156;DHT22;6141;49.092;8.516;2022-08-19T11:24:35;28.60;28.40
12156;DHT22;6141;49.092;8.516;2022-08-19T11:45:33;28.70;28.30
12156;DHT22;6141;49.092;8.516;2022-08-19T11:50:14;28.60;26.80
12156;DHT22;6141;49.092;8.516;2022-08-19T11:57:58;28.60;26.70
12156;DHT22;6141;49.092;8.516;2022-08-19T12:30:46;28.80;27.30
12156;DHT22;6141;49.092;8.516;2022-08-19T12:34:03;29.00;26.80
12156;DHT22;6141;49.092;8.516;2022-08-19T12:39:36;28.90;25.10
12156;DHT22;6141;49.092;8.516;2022-08-19T12:42:39;28.50;24.90
12156;DHT22;6141;49.092;8.516;2022-08-19T12:49:53;28.80;25.10
12156;DHT22;6141;49.092;8.516;2022-08-19T13:19:32;28.40;24.80
12156;DHT22;6141;49.092;8.516;2022-08-19T13:26:13;28.50;24.90
12156;DHT22;6141;49.092;8.516;2022-08-19T13:41:25;28.30;25.30
12156;DHT22;6141;49.092;8.516;2022-08-19T13:48:42;28.80;24.90
12156;DHT22;6141;49.092;8.516;2022-08-19T14:07:35;29.70;22.40
12156;DHT22;6141;49.092;8.516;2022-08-19T14:11:13;30.00;21.90
12156;DHT22;6141;49.092;8.516;2022-08-19T14:15:41;30.00;20.40
12156;DHT22;6141;49.092;8.516;2022-08-19T14:25:06;30.00;20.00
12156;DHT22;6141;49.092;8.516;2022-08-19T18:45:03;28.20;31.50
12156;DHT22;6141;49.092;8.516;2022-08-19T18:48:54;28.40;30.10
12156;DHT22;6141;49.092;8.516;2022-08-19T18:51:47;28.10;34.50
12156;DHT22;6141;49.092;8.516;2022-08-19T18:54:52;27.90;36.20
12156;DHT22;6141;49.092;8.516;2022-08-19T18:57:28;27.40;34.40
12156;DHT22;6141;49.092;8.516;2022-08-19T19:00:36;26.90;37.60
12156;DHT22;6141;49.092;8.516;2022-08-19T19:03:17;26.50;38.00
12156;DHT22;6141;49.092;8.516;2022-08-19T19:05:56;26.30;41.50
12156;DHT22;6141;49.092;8.516;2022-08-19T19:08:40;26.40;41.80
12156;DHT22;6141;49.092;8.516;2022-08-19T19:11:18;26.50;40.40
12156;DHT22;6141;49.092;8.516;2022-08-19T19:14:11;26.40;39.20
12156;DHT22;6141;49.092;8.516;2022-08-19T19:17:33;26.20;42.10
12156;DHT22;6141;49.092;8.516;2022-08-19T19:20:12;26.40;39.90
12156;DHT22;6141;49.092;8.516;2022-08-19T19:23:02;26.40;36.60
12156;DHT22;6141;49.092;8.516;2022-08-19T19:25:44;26.40;36.00
12156;DHT22;6141;49.092;8.516;2022-08-19T19:28:24;26.50;38.80
12156;DHT22;6141;49.092;8.516;2022-08-19T19:30:57;26.50;36.40
12156;DHT22;6141;49.092;8.516;2022-08-19T19:33:32;26.50;33.80
12156;DHT22;6141;49.092;8.516;2022-08-19T19:36:09;26.60;31.70
12156;DHT22;6141;49.092;8.516;2022-08-19T19:38:53;26.70;30.80
12156;DHT22;6141;49.092;8.516;2022-08-19T19:41:23;26.70;29.10
12156;DHT22;6141;49.092;8.516;2022-08-19T19:44:04;26.70;27.40
12156;DHT22;6141;49.092;8.516;2022-08-19T19:47:05;26.80;28.00
12156;DHT22;6141;49.092;8.516;2022-08-19T19:49:47;26.80;28.80
12156;DHT22;6141;49.092;8.516;2022-08-19T19:52:41;26.60;27.20
12156;DHT22;6141;49.092;8.516;2022-08-19T19:55:24;26.50;27.70
12156;DHT22;6141;49.092;8.516;2022-08-19T19:57:56;26.50;27.80
12156;DHT22;6141;49.092;8.516;2022-08-19T20:23:59;26.30;28.80
12156;DHT22;6141;49.092;8.516;2022-08-19T20:27:48;26.50;29.00
12156;DHT22;6141;49.092;8.516;2022-08-19T20:31:59;26.30;28.80
12156;DHT22;6141;49.092;8.516;2022-08-19T20:49:16;26.50;29.00
12156;DHT22;6141;49.092;8.516;2022-08-19T21:01:49;26.90;28.90
12156;DHT22;6141;49.092;8.516;2022-08-19T21:13:59;26.70;29.10
12156;DHT22;6141;49.092;8.516;2022-08-19T21:17:53;26.50;29.30
12156;DHT22;6141;49.092;8.516;2022-08-19T21:22:39;26.50;29.80
12156;DHT22;6141;49.092;8.516;2022-08-19T22:00:00;26.10;32.50
12156;DHT22;6141;49.092;8.516;2022-08-19T22:04:20;25.70;33.90
12156;DHT22;6141;49.092;8.516;2022-08-19T22:26:06;25.40;35.40
12156;DHT22;6141;49.092;8.516;2022-08-19T22:33:17;25.20;35.40
12156;DHT22;6141;49.092;8.516;2022-08-19T22:36:29;25.20;36.20
12156;DHT22;6141;49.092;8.516;2022-08-19T22:40:15;25.30;36.00
12156;DHT22;6141;49.092;8.516;2022-08-19T22:43:18;25.30;35.70
12156;DHT22;6141;49.092;8.516;2022-08-19T23:00:23;24.90;37.10
12156;DHT22;6141;49.092;8.516;2022-08-19T23:05:35;24.90;37.80
